Pagina principale
METAR-TAF:

METAR-TAF

Aeroporti :

Emmen, Svizzera

latitudine: 47-05-32N, longitudine: 8-18-16E, altezza: 426 m

Osservazione

Il bollettino è stato emesso 17 minuti fa, alle 12:50 UTC
Vento 3 kt da nord-est, variando fra nord/nord-est e est
Temperature -1°C
Umidità 80%
Pressione 1008 hPa
Visibilità: 5000 m
Nubi sparse ad un'altezza di 2100 ft
Cielo coperto ad un'altezza di 2700 ft
neve debole

METAR: LSME 241250Z 05003KT 020V080 5000 -SN SCT021 OVC027 M01/M04 Q1008 RMK WHT

Ora: 14:07 (13:07 UTC)


TAF: mancante

Osservazioni e previsioni meteorologiche di più di 4000 aeroporti (messaggi METAR e TAF).

Le stazioni disponibili sono rappresentate dai dischi gialli e rossi sulla carta.

Puntare il mouse per vedere il nome della stazione.

Clicca sopra per visualizzare le osservazioni e previsioni meteorologiche.

Per cambiare la mappa : fare clic sui pulsanti verdi con una croce nera per ingrandire, il pulsante verde con un trattino per diminuire, o sulla freccia verde per le mappe adiacenti.


METAR-TAF: